This is the latest recevied weather packets stored in our database for station/object LRCK. If no packets are shown the sender has not sent any weather packets the latest 10 day(s).
| Time | Temp. | Humidity | Pressure | Rain* | Wind** | Luminosity | Snow |
|---|---|---|---|---|---|---|---|
| 1777369706 | 16.11° C | 29% | 1019 hPa | - | - | - | - |
| 1777368805 | 16.11° C | 29% | 1019 hPa | - | - | - | - |
| 1777367898 | 16.11° C | 34% | 1020 hPa | - | - | - | - |
| 1777366997 | 16.11° C | 34% | 1020 hPa | - | - | - | - |
| 1777366098 | 15° C | 34% | 1020 hPa | - | - | - | - |
| 1777365197 | 15° C | 34% | 1020 hPa | - | - | - | - |
| 1777364297 | 15° C | 36% | 1020 hPa | - | - | - | - |
| 1777363398 | 15° C | 36% | 1020 hPa | - | - | - | - |
| 1777362497 | 13.89° C | 36% | 1020 hPa | - | - | - | - |
| 1777361598 | 13.89° C | 36% | 1020 hPa | - | - | - | - |
| 1777360698 | 12.78° C | 44% | 1020 hPa | - | - | - | - |
| 1777359797 | 12.78° C | 44% | 1020 hPa | - | - | - | - |
| 1777358897 | 12.22° C | 51% | 1020 hPa | - | - | - | - |
| 1777358020 | 12.22° C | 51% | 1020 hPa | - | - | - | - |
| 1777357098 | 11.11° C | 54% | 1020 hPa | - | - | - | - |
| 1777356198 | 11.11° C | 54% | 1020 hPa | - | - | - | - |
| 1777355323 | 10° C | 62% | 1020 hPa | - | - | - | - |
| 1777354397 | 10° C | 62% | 1020 hPa | - | - | - | - |
| 1777353517 | 7.78° C | 71% | 1020 hPa | - | - | - | - |
| 1777352607 | 7.78° C | 71% | 1020 hPa | - | - | - | - |
| 1777351697 | 6.11° C | 81% | 1020 hPa | - | - | - | - |
| 1777350873 | 6.11° C | 81% | 1020 hPa | - | - | - | - |
| 1777349897 | 3.89° C | 81% | 1020 hPa | - | - | - | - |
| 1777348998 | 3.89° C | 81% | 1020 hPa | - | - | - | - |
| 1777348097 | 2.78° C | 87% | 1020 hPa | - | - | - | - |
* Rain since midnight (hover to see other rain measurements)
** Current wind speed in m/s (hover to see current wind gust speed)